Time;durP1;ratioP1;P1;durP2;ratioP2;P2;SDS_P1;SDS_P2;PMS_P1;PMS_P2;Temp;Humidity;BMP_temperature;BMP_pressure;BME280_temperature;BME280_humidity;BME280_pressure;Samples;Min_cycle;Max_cycle;Signal;HPM_P1;HPM_P2
2023/09/09 00:01:44;;;;;;;12.73;11.43;;;;;;;18.98;100.00;101626.97;4894580;29;20045;-77
2023/09/09 00:04:11;;;;;;;12.50;11.20;;;;;;;18.97;100.00;101619.84;4880820;29;20059;-77
2023/09/09 00:06:40;;;;;;;13.23;10.65;;;;;;;18.95;100.00;101621.66;4898647;29;20044;-78
2023/09/09 00:09:08;;;;;;;12.48;11.18;;;;;;;18.93;100.00;101612.81;4910088;29;20048;-78
2023/09/09 00:11:38;;;;;;;13.27;11.35;;;;;;;18.92;100.00;101615.50;4928162;29;20052;-78
2023/09/09 00:14:05;;;;;;;12.77;11.48;;;;;;;18.91;100.00;101611.97;4887506;29;20491;-77
2023/09/09 00:16:34;;;;;;;14.93;12.57;;;;;;;18.89;100.00;101611.09;4925720;29;20056;-78
2023/09/09 00:19:02;;;;;;;16.50;11.52;;;;;;;18.88;100.00;101620.00;4908380;29;20057;-77
2023/09/09 00:21:29;;;;;;;14.15;12.60;;;;;;;18.85;100.00;101610.28;4927588;29;20047;-77
2023/09/09 00:23:58;;;;;;;18.48;12.90;;;;;;;18.84;100.00;101607.63;4901089;29;20041;-78
2023/09/09 00:26:27;;;;;;;14.10;12.60;;;;;;;18.82;100.00;101602.31;4919114;29;20051;-79
2023/09/09 00:28:55;;;;;;;16.73;14.93;;;;;;;18.80;100.00;101606.81;4864902;29;20044;-77
2023/09/09 00:31:23;;;;;;;17.60;14.15;;;;;;;18.80;100.00;101606.81;4911980;29;20044;-77
2023/09/09 00:33:52;;;;;;;18.30;15.27;;;;;;;18.80;100.00;101603.25;4910271;29;20068;-77
2023/09/09 00:36:20;;;;;;;16.00;13.88;;;;;;;18.78;100.00;101597.06;4898404;29;20055;-78
2023/09/09 00:38:47;;;;;;;22.13;15.65;;;;;;;18.77;100.00;101601.53;4895909;29;20052;-77
2023/09/09 00:41:17;;;;;;;17.23;15.23;;;;;;;18.76;100.00;101598.88;4912814;29;20055;-77
2023/09/09 00:43:47;;;;;;;18.90;14.25;;;;;;;18.76;100.00;101604.22;4870182;29;20080;-77
2023/09/09 00:46:16;;;;;;;17.08;13.70;;;;;;;18.76;100.00;101604.22;4904209;29;20056;-78
2023/09/09 00:48:44;;;;;;;19.58;15.77;;;;;;;18.76;100.00;101609.56;4904987;29;20056;-77
2023/09/09 00:51:13;;;;;;;17.08;14.43;;;;;;;18.74;100.00;101600.69;4912504;29;20496;-77
2023/09/09 00:53:41;;;;;;;16.90;15.10;;;;;;;18.75;100.00;101611.34;4900628;29;20052;-77
2023/09/09 00:56:09;;;;;;;17.98;15.10;;;;;;;18.73;100.00;101604.25;4920305;29;20040;-77
2023/09/09 00:58:37;;;;;;;19.38;15.68;;;;;;;18.73;100.00;101606.94;4870376;29;20066;-77
2023/09/09 01:01:05;;;;;;;16.27;14.68;;;;;;;18.73;100.00;101601.59;4905791;29;20044;-77
2023/09/09 01:03:32;;;;;;;21.33;15.70;;;;;;;18.72;100.00;101602.50;4909730;29;20075;-77
2023/09/09 01:06:02;;;;;;;20.13;15.85;;;;;;;18.69;100.00;101604.34;4902369;29;20439;-78
2023/09/09 01:08:30;;;;;;;18.00;15.48;;;;;;;18.68;100.00;101607.03;4888578;29;20052;-78
2023/09/09 01:10:58;;;;;;;20.95;15.68;;;;;;;18.66;100.00;101593.69;4924130;29;20052;-78
2023/09/09 01:13:27;;;;;;;17.75;15.48;;;;;;;18.63;100.00;101604.41;4895800;29;20070;-78
2023/09/09 01:15:54;;;;;;;17.50;15.70;;;;;;;18.62;100.00;101596.44;4870477;29;20052;-77
2023/09/09 01:18:23;;;;;;;18.30;15.18;;;;;;;18.59;100.00;101597.38;4906884;29;20059;-78
2023/09/09 01:20:59;;;;;;;17.33;15.52;;;;;;;18.56;100.00;101592.09;4891485;29;20686;-78
2023/09/09 01:23:27;;;;;;;22.15;16.63;;;;;;;18.56;100.00;101591.22;4909184;29;20492;-78
2023/09/09 01:25:54;;;;;;;17.30;15.50;;;;;;;18.55;100.00;101593.00;4918026;29;20055;-77
2023/09/09 01:28:22;;;;;;;17.65;15.85;;;;;;;18.53;100.00;101597.50;4899143;29;20079;-78
2023/09/09 01:30:50;;;;;;;20.35;16.73;;;;;;;18.51;100.00;101597.53;4859233;29;20145;-78
2023/09/09 01:33:18;;;;;;;19.02;17.02;;;;;;;18.50;100.00;101600.22;4911600;29;20044;-78
2023/09/09 01:35:49;;;;;;;20.98;16.15;;;;;;;18.48;100.00;101589.56;4905756;29;20057;-78
2023/09/09 01:38:17;;;;;;;18.80;16.38;;;;;;;18.49;100.00;101593.13;4904404;29;20052;-78
2023/09/09 01:40:44;;;;;;;18.40;16.42;;;;;;;18.47;100.00;101597.63;4886107;29;20052;-78
2023/09/09 01:43:12;;;;;;;18.45;16.55;;;;;;;18.47;100.00;101586.94;4908087;29;20053;-78
2023/09/09 01:45:40;;;;;;;17.85;15.98;;;;;;;18.46;100.00;101588.72;4859994;29;20504;-78
2023/09/09 01:48:07;;;;;;;17.88;15.65;;;;;;;18.46;100.00;101591.38;4906474;29;20055;-78
2023/09/09 01:50:36;;;;;;;18.38;15.85;;;;;;;18.45;100.00;101592.31;4924824;29;20048;-78
2023/09/09 01:53:03;;;;;;;18.75;16.85;;;;;;;18.45;100.00;101596.75;4926343;29;20055;-78
2023/09/09 01:55:31;;;;;;;18.83;15.85;;;;;;;18.45;100.00;101589.63;4899112;29;20067;-78
2023/09/09 01:57:59;;;;;;;18.45;16.52;;;;;;;18.46;100.00;101590.50;4899421;29;20056;-78
2023/09/09 02:00:30;;;;;;;18.55;16.55;;;;;;;18.46;100.00;101585.16;4888718;29;20060;-78
2023/09/09 02:02:58;;;;;;;21.95;17.05;;;;;;;18.46;100.00;101590.50;4890211;29;20055;-77
2023/09/09 02:05:25;;;;;;;19.80;17.08;;;;;;;18.45;100.00;101589.63;4909010;29;20056;-78
2023/09/09 02:07:53;;;;;;;17.70;15.77;;;;;;;18.44;100.00;101587.84;4854267;29;20083;-78
2023/09/09 02:10:21;;;;;;;23.13;17.90;;;;;;;18.43;100.00;101583.44;4903319;29;20415;-77
2023/09/09 02:12:49;;;;;;;21.92;18.15;;;;;;;18.43;100.00;101586.13;4903534;29;20055;-78
2023/09/09 02:15:16;;;;;;;18.30;16.23;;;;;;;18.42;100.00;101594.16;4911046;29;20044;-78
2023/09/09 02:17:46;;;;;;;20.50;18.30;;;;;;;18.41;100.00;101592.38;4871942;29;20055;-78
2023/09/09 02:20:15;;;;;;;22.02;19.20;;;;;;;18.41;100.00;101593.28;4911022;29;20055;-77
2023/09/09 02:22:42;;;;;;;22.13;18.45;;;;;;;18.38;100.00;101598.66;4892447;29;20048;-78
2023/09/09 02:25:09;;;;;;;19.73;17.73;;;;;;;18.37;100.00;101586.19;4911186;29;20415;-78
2023/09/09 02:27:38;;;;;;;19.65;17.65;;;;;;;18.37;100.00;101583.53;4915307;29;20052;-77
2023/09/09 02:30:06;;;;;;;22.38;19.05;;;;;;;18.35;100.00;101588.03;4889568;29;20052;-77
2023/09/09 02:32:33;;;;;;;25.67;20.80;;;;;;;18.34;100.00;101593.41;4843807;29;20040;-79
2023/09/09 02:35:03;;;;;;;21.98;19.45;;;;;;;18.34;100.00;101580.06;4906933;29;20067;-78
2023/09/09 02:37:30;;;;;;;22.25;19.75;;;;;;;18.33;100.00;101578.28;4876807;29;20048;-77
2023/09/09 02:40:00;;;;;;;22.50;19.50;;;;;;;18.31;100.00;101576.50;4876622;29;20060;-77
2023/09/09 02:42:27;;;;;;;24.92;19.65;;;;;;;18.31;100.00;101587.19;4914695;29;20052;-77
2023/09/09 02:44:54;;;;;;;23.45;20.15;;;;;;;18.29;100.00;101580.13;4905230;29;20056;-77
2023/09/09 02:47:22;;;;;;;22.50;20.00;;;;;;;18.27;100.00;101580.16;4878552;29;20513;-79
2023/09/09 02:49:50;;;;;;;23.52;20.25;;;;;;;18.26;100.00;101573.06;4901315;29;20063;-77
2023/09/09 02:52:21;;;;;;;23.20;20.42;;;;;;;18.26;100.00;101572.16;4879374;29;20075;-77
2023/09/09 02:54:48;;;;;;;24.92;21.50;;;;;;;18.25;100.00;101571.28;4915717;29;20091;-77
2023/09/09 02:57:17;;;;;;;25.17;21.60;;;;;;;18.25;100.00;101576.63;4885043;29;20045;-77
2023/09/09 02:59:45;;;;;;;24.20;19.92;;;;;;;18.26;100.00;101572.16;4917398;29;20141;-79
2023/09/09 03:02:14;;;;;;;24.25;21.63;;;;;;;18.24;100.00;101574.88;4895092;29;20527;-77
2023/09/09 03:04:42;;;;;;;24.52;20.95;;;;;;;18.24;100.00;101573.97;4885330;28;20068;-78
2023/09/09 03:07:09;;;;;;;22.13;19.63;;;;;;;18.22;100.00;101576.72;4906753;29;20055;-77
2023/09/09 03:09:37;;;;;;;25.80;21.38;;;;;;;18.20;100.00;101573.16;4888248;29;20052;-78
2023/09/09 03:12:06;;;;;;;24.17;21.05;;;;;;;18.20;100.00;101572.28;4899597;29;20043;-78
2023/09/09 03:14:34;;;;;;;32.05;22.70;;;;;;;18.18;100.00;101569.63;4878461;29;20063;-78
2023/09/09 03:17:02;;;;;;;27.30;22.52;;;;;;;18.18;100.00;101574.09;4930235;29;20063;-78
2023/09/09 03:19:31;;;;;;;27.63;22.52;;;;;;;18.18;100.00;101571.44;4858245;29;20055;-78
2023/09/09 03:21:58;;;;;;;30.92;23.13;;;;;;;18.17;100.00;101572.34;4897900;29;20056;-78
2023/09/09 03:24:26;;;;;;;26.92;22.50;;;;;;;18.15;100.00;101575.03;4928256;29;20424;-78
2023/09/09 03:26:53;;;;;;;27.10;23.52;;;;;;;18.15;100.00;101569.72;4915010;29;20048;-77
2023/09/09 03:29:21;;;;;;;25.08;22.02;;;;;;;18.12;100.00;101572.41;4873775;29;20048;-78
2023/09/09 03:31:50;;;;;;;26.50;23.23;;;;;;;18.11;100.00;101563.53;4925395;29;20040;-78
2023/09/09 03:34:19;;;;;;;26.20;22.88;;;;;;;18.10;100.00;101566.22;4872690;29;20052;-77
2023/09/09 03:36:47;;;;;;;29.38;24.45;;;;;;;18.09;100.00;101570.69;4894427;29;20508;-78
2023/09/09 03:39:15;;;;;;;24.15;21.58;;;;;;;18.09;100.00;101567.13;4930478;28;20056;-78
2023/09/09 03:41:42;;;;;;;32.28;25.38;;;;;;;18.08;100.00;101573.38;4926309;29;20082;-78
2023/09/09 03:44:10;;;;;;;32.50;26.13;;;;;;;18.06;100.00;101565.41;4901542;29;20052;-77
2023/09/09 03:46:38;;;;;;;26.55;23.75;;;;;;;18.06;100.00;101567.19;4911797;29;20048;-77
2023/09/09 03:49:06;;;;;;;28.45;23.58;;;;;;;18.05;100.00;101568.06;4910720;29;20056;-77
2023/09/09 03:51:33;;;;;;;31.23;25.77;;;;;;;18.02;100.00;101562.81;4867340;29;20056;-77
2023/09/09 03:54:01;;;;;;;30.92;24.08;;;;;;;18.02;100.00;101565.47;4920897;29;20044;-77
2023/09/09 03:56:28;;;;;;;34.55;27.02;;;;;;;18.02;100.00;101565.47;4911008;29;20415;-77
2023/09/09 03:58:56;;;;;;;32.55;27.95;;;;;;;18.01;100.00;101567.25;4905375;29;20062;-77
2023/09/09 04:01:24;;;;;;;29.45;26.27;;;;;;;18.02;100.00;101573.47;4861306;29;20063;-77
2023/09/09 04:03:52;;;;;;;29.42;26.33;;;;;;;18.02;100.00;101579.69;4904574;29;20057;-77
2023/09/09 04:06:20;;;;;;;35.55;29.42;;;;;;;18.03;100.00;101575.22;4844958;29;20048;-77
2023/09/09 04:08:50;;;;;;;32.00;27.77;;;;;;;18.02;100.00;101582.34;4897382;29;20057;-77
2023/09/09 04:11:17;;;;;;;31.90;27.35;;;;;;;18.01;100.00;101582.38;4897835;29;20555;-78
2023/09/09 04:13:45;;;;;;;32.05;27.17;;;;;;;18.00;100.00;101570.84;4911721;29;20051;-77
2023/09/09 04:16:13;;;;;;;33.15;26.58;;;;;;;17.99;100.00;101574.38;4888210;29;20508;-78
2023/09/09 04:18:40;;;;;;;29.13;25.70;;;;;;;17.96;100.00;101569.13;4922355;29;20133;-77
2023/09/09 04:21:18;;;;;;;27.23;24.40;;;;;;;17.96;100.00;101570.88;4866021;29;20043;-77
2023/09/09 04:23:46;;;;;;;27.83;24.85;;;;;;;17.96;100.00;101562.88;4907969;29;20043;-77
2023/09/09 04:26:14;;;;;;;31.55;26.60;;;;;;;17.94;100.00;101562.94;4917177;29;20424;-77
2023/09/09 04:28:42;;;;;;;37.25;28.10;;;;;;;17.95;100.00;101566.47;4912322;29;20063;-77
2023/09/09 04:31:09;;;;;;;29.48;25.45;;;;;;;17.96;100.00;101576.22;4916981;29;20527;-77
2023/09/09 04:33:40;;;;;;;31.05;25.80;;;;;;;17.96;100.00;101573.56;4914089;29;20056;-77
2023/09/09 04:36:08;;;;;;;29.02;25.50;;;;;;;17.95;100.00;101571.81;4884549;29;20048;-77
2023/09/09 04:38:36;;;;;;;32.13;26.55;;;;;;;17.93;100.00;101575.38;4887884;29;20044;-78
2023/09/09 04:41:07;;;;;;;35.75;29.70;;;;;;;17.93;100.00;101572.69;4910613;29;20052;-80
2023/09/09 04:43:35;;;;;;;33.80;29.70;;;;;;;17.92;100.00;101572.75;4904346;29;20067;-77
2023/09/09 04:46:03;;;;;;;43.17;36.08;;;;;;;17.92;100.00;101581.63;4889805;29;20056;-77
2023/09/09 04:48:32;;;;;;;41.75;33.78;;;;;;;17.91;100.00;101573.66;4911001;29;20090;-77
2023/09/09 04:51:00;;;;;;;36.65;30.27;;;;;;;17.91;100.00;101573.66;4846639;29;20058;-77
2023/09/09 04:53:27;;;;;;;37.55;30.08;;;;;;;17.90;100.00;101578.09;4894176;29;20044;-77
2023/09/09 04:55:56;;;;;;;32.80;29.30;;;;;;;17.90;100.00;101574.53;4913292;29;20056;-77
2023/09/09 04:58:25;;;;;;;36.22;30.35;;;;;;;17.90;100.00;101574.53;4901774;29;20048;-78
2023/09/09 05:00:53;;;;;;;41.72;37.15;;;;;;;17.89;100.00;101572.78;4927757;29;20515;-80
2023/09/09 05:03:22;;;;;;;39.42;34.55;;;;;;;17.91;100.00;101581.66;4897862;29;20036;-78
2023/09/09 05:05:51;;;;;;;39.70;33.85;;;;;;;17.90;100.00;101575.44;4911816;28;20048;-78
2023/09/09 05:08:19;;;;;;;35.08;30.98;;;;;;;17.92;100.00;101572.75;4883033;29;21459;-79
2023/09/09 05:10:46;;;;;;;38.05;32.83;;;;;;;17.95;100.00;101577.16;4886132;29;20048;-78
2023/09/09 05:13:14;;;;;;;37.03;32.63;;;;;;;17.96;100.00;101590.47;4880113;29;20045;-79
2023/09/09 05:15:41;;;;;;;36.00;31.73;;;;;;;17.97;100.00;101580.66;4907613;29;20439;-78
2023/09/09 05:18:09;;;;;;;36.75;31.23;;;;;;;17.97;100.00;101578.00;4899699;29;20059;-78
2023/09/09 05:20:36;;;;;;;38.03;32.35;;;;;;;17.97;100.00;101584.19;4914790;29;20059;-79
2023/09/09 05:23:05;;;;;;;37.08;31.77;;;;;;;18.00;100.00;101583.28;4864543;29;20515;-78
2023/09/09 05:25:32;;;;;;;37.65;32.72;;;;;;;18.01;100.00;101583.25;4900010;29;20055;-79
2023/09/09 05:28:00;;;;;;;37.13;31.05;;;;;;;18.04;100.00;101577.88;4885484;29;20063;-78
2023/09/09 05:30:28;;;;;;;39.25;33.10;;;;;;;18.08;100.00;101584.03;4905604;29;20056;-78
2023/09/09 05:32:55;;;;;;;37.35;30.95;;;;;;;18.10;100.00;101576.91;4905454;29;20056;-78
2023/09/09 05:35:23;;;;;;;44.15;33.28;;;;;;;18.14;100.00;101578.59;4910370;29;20048;-78
2023/09/09 05:37:51;;;;;;;38.63;31.35;;;;;;;18.16;100.00;101579.44;4872289;29;20130;-78
2023/09/09 05:40:19;;;;;;;34.72;30.10;;;;;;;18.21;100.00;101580.25;4908808;29;20056;-78
2023/09/09 05:42:47;;;;;;;40.10;31.63;;;;;;;18.26;100.00;101583.75;4899163;29;20044;-78
2023/09/09 05:45:15;;;;;;;34.67;30.88;;;;;;;18.30;100.00;101579.25;4892839;29;20068;-78
2023/09/09 05:47:45;;;;;;;38.47;31.90;;;;;;;18.36;100.00;101580.91;4877430;29;20059;-77
2023/09/09 05:50:12;;;;;;;34.40;30.73;;;;;;;18.41;100.00;101589.69;4891992;29;20064;-77
2023/09/09 05:52:41;;;;;;;36.65;30.13;;;;;;;18.46;100.00;101593.19;4911654;29;20052;-78
2023/09/09 05:55:09;;;;;;;34.17;30.02;;;;;;;18.50;100.00;101595.75;4854938;29;20435;-78
2023/09/09 05:57:38;;;;;;;35.85;29.65;;;;;;;18.55;100.00;101590.34;4902553;29;20083;-77
2023/09/09 06:00:06;;;;;;;35.85;30.23;;;;;;;18.59;100.00;101592.03;4919341;29;20071;-77
2023/09/09 06:02:43;;;;;;;35.05;30.10;;;;;;;18.65;100.00;101593.72;4907186;29;20044;-78
2023/09/09 06:05:11;;;;;;;33.03;29.10;;;;;;;18.70;100.00;101595.41;4902388;29;20063;-78
2023/09/09 06:07:38;;;;;;;37.50;29.83;;;;;;;18.74;100.00;101596.22;4904994;29;20787;-78
2023/09/09 06:10:09;;;;;;;33.92;29.17;;;;;;;18.80;100.00;101595.22;4869356;29;20051;-79
2023/09/09 06:12:37;;;;;;;34.88;29.27;;;;;;;18.84;100.00;101596.97;4859839;29;20071;-78
2023/09/09 06:15:05;;;;;;;32.25;28.63;;;;;;;18.88;100.00;101604.91;4892795;29;20056;-76
2023/09/09 06:17:33;;;;;;;37.92;29.58;;;;;;;18.96;100.00;101607.41;4889761;29;20060;-78
2023/09/09 06:20:00;;;;;;;33.72;28.38;;;;;;;19.01;100.00;101610.84;4905121;29;20047;-77
2023/09/09 06:22:29;;;;;;;34.78;28.50;;;;;;;19.06;100.00;101602.78;4900175;29;20055;-78
2023/09/09 06:24:56;;;;;;;35.17;29.45;;;;;;;19.13;100.00;101606.19;4888024;29;20067;-79
2023/09/09 06:27:24;;;;;;;31.52;27.75;;;;;;;19.18;100.00;101607.84;4876339;29;20389;-80
2023/09/09 06:29:52;;;;;;;33.15;28.65;;;;;;;19.25;100.00;101609.47;4883360;29;20056;-79
2023/09/09 06:32:20;;;;;;;33.33;27.50;;;;;;;19.34;100.00;101613.75;4909623;29;20051;-78
2023/09/09 06:34:48;;;;;;;31.42;27.42;;;;;;;19.41;100.00;101606.47;4909339;29;20052;-78
2023/09/09 06:37:16;;;;;;;31.33;27.02;;;;;;;19.61;100.00;101608.72;4870287;29;20048;-78
2023/09/09 06:39:43;;;;;;;34.20;26.88;;;;;;;19.94;100.00;101609.75;4907656;29;20095;-79
2023/09/09 06:42:13;;;;;;;30.92;25.42;;;;;;;20.24;100.00;101608.16;4858119;29;20079;-77
2023/09/09 06:44:46;;;;;;;30.00;26.45;;;;;;;20.61;100.00;101607.22;4896749;29;20070;-81
2023/09/09 06:47:13;;;;;;;27.92;24.90;;;;;;;20.98;100.00;101610.69;4891006;29;20059;-79
2023/09/09 06:49:41;;;;;;;28.70;25.52;;;;;;;21.31;100.00;101614.22;4870938;29;20052;-79
2023/09/09 06:52:08;;;;;;;33.10;24.95;;;;;;;21.50;100.00;101611.91;4889293;29;20060;-79
2023/09/09 06:54:35;;;;;;;30.23;26.90;;;;;;;21.75;100.00;101620.06;4922768;29;20400;-81
2023/09/09 06:57:04;;;;;;;30.33;25.55;;;;;;;22.01;100.00;101618.34;4873826;29;20064;-80
2023/09/09 06:59:31;;;;;;;31.17;24.63;;;;;;;22.30;100.00;101619.22;4911647;29;20072;-80
2023/09/09 07:01:59;;;;;;;30.63;25.35;;;;;;;22.48;100.00;101617.75;4897127;29;20440;-80
2023/09/09 07:04:27;;;;;;;28.40;24.38;;;;;;;22.53;100.00;101613.97;4893765;29;20048;-80
2023/09/09 07:06:54;;;;;;;29.88;24.33;;;;;;;22.55;100.00;101616.56;4894837;29;20052;-80
2023/09/09 07:09:39;;;;;;;31.00;24.23;;;;;;;22.52;100.00;101614.88;4923092;29;20044;-80
2023/09/09 07:12:09;;;;;;;27.77;24.45;;;;;;;22.53;100.00;101615.75;4870183;29;20064;-80
2023/09/09 07:14:37;;;;;;;26.10;23.42;;;;;;;22.58;100.00;101620.03;4881734;29;20523;-81
2023/09/09 07:17:08;;;;;;;27.42;24.20;;;;;;;22.69;100.00;101621.50;4885587;29;20059;-80
2023/09/09 07:19:35;;;;;;;25.73;22.98;;;;;;;22.80;100.00;101626.47;4904596;29;20063;-80
2023/09/09 07:22:03;;;;;;;27.60;24.70;;;;;;;22.95;100.00;101616.06;4881478;29;20427;-80
2023/09/09 07:24:30;;;;;;;27.15;24.08;;;;;;;23.23;100.00;101630.31;4894324;29;20141;-80
2023/09/09 07:27:01;;;;;;;24.95;22.30;;;;;;;23.53;100.00;101626.47;4886235;29;20064;-80
2023/09/09 07:29:28;;;;;;;25.80;23.10;;;;;;;23.85;100.00;101626.16;4889825;29;20060;-79
2023/09/09 07:31:56;;;;;;;30.02;22.48;;;;;;;24.03;100.00;101632.63;4884609;29;20055;-80
2023/09/09 07:34:24;;;;;;;25.17;22.02;;;;;;;24.18;100.00;101637.38;4884364;29;20044;-80
2023/09/09 07:36:52;;;;;;;23.65;21.15;;;;;;;24.39;100.00;101637.44;4899949;29;20052;-80
2023/09/09 07:39:19;;;;;;;25.63;21.58;;;;;;;24.50;100.00;101630.63;4907541;29;20048;-80
2023/09/09 07:41:46;;;;;;;26.13;20.38;;;;;;;24.63;100.00;101630.13;4850048;29;20062;-78
2023/09/09 07:44:14;;;;;;;22.25;20.00;;;;;;;24.72;100.00;101635.13;4904848;29;20040;-79
2023/09/09 07:46:41;;;;;;;24.10;18.90;;;;;;;24.77;100.00;101640.31;4886879;29;20075;-79
2023/09/09 07:49:09;;;;;;;23.00;17.00;;;;;;;24.77;100.00;101637.63;4887135;29;20412;-79
2023/09/09 07:51:36;;;;;;;19.92;16.83;;;;;;;24.77;100.00;101635.78;4904796;29;20049;-79
2023/09/09 07:54:05;;;;;;;16.98;15.00;;;;;;;24.75;100.00;101643.06;4910935;29;20040;-79
2023/09/09 07:56:32;;;;;;;17.83;15.98;;;;;;;24.81;100.00;101642.78;4903291;29;20427;-79
2023/09/09 07:59:00;;;;;;;17.60;14.85;;;;;;;24.92;100.00;101650.41;4867008;29;20052;-79
2023/09/09 08:01:27;;;;;;;19.77;14.88;;;;;;;25.10;100.00;101640.63;4891698;29;20052;-79
2023/09/09 08:07:43;;;;;;;15.57;14.00;;;;;;;25.54;100.00;101642.25;4897347;29;20051;-78
2023/09/09 08:10:12;;;;;;;18.23;14.40;;;;;;;25.56;100.00;101652.03;4914783;29;20052;-78
2023/09/09 08:12:42;;;;;;;16.75;14.98;;;;;;;25.70;100.00;101640.56;4894852;29;20048;-79
2023/09/09 08:15:10;;;;;;;16.35;14.75;;;;;;;25.87;100.00;101642.47;4866154;29;20053;-79
2023/09/09 08:17:38;;;;;;;16.35;14.48;;;;;;;25.96;100.00;101644.75;4885495;29;20063;-79
2023/09/09 08:20:07;;;;;;;20.30;15.30;;;;;;;26.09;100.00;101647.72;4898625;29;20083;-79
2023/09/09 08:22:35;;;;;;;17.15;15.35;;;;;;;26.19;100.00;101653.53;4898442;29;20407;-79
2023/09/09 08:25:04;;;;;;;16.70;14.95;;;;;;;26.20;100.00;101647.16;4898986;29;20041;-79
2023/09/09 08:27:33;;;;;;;16.48;14.77;;;;;;;26.28;100.00;101647.69;4921956;29;20056;-79
2023/09/09 08:30:00;;;;;;;16.77;14.88;;;;;;;26.33;100.00;101640.19;4858969;29;20044;-82
2023/09/09 08:32:28;;;;;;;18.83;14.35;;;;;;;26.51;100.00;101651.91;4857476;29;20052;-80
2023/09/09 08:34:55;;;;;;;17.08;13.93;;;;;;;26.68;100.00;101642.97;4893541;29;20036;-81
2023/09/09 08:37:23;;;;;;;15.48;13.90;;;;;;;26.81;100.00;101644.06;4911752;29;20048;-81
2023/09/09 08:39:53;;;;;;;16.85;14.52;;;;;;;26.97;100.00;101645.97;4891326;29;20480;-80
2023/09/09 08:42:34;;;;;;;16.50;14.65;;;;;;;27.10;100.00;101648.91;4892839;29;20794;-81
2023/09/09 08:45:16;;;;;;;15.80;14.20;;;;;;;27.17;100.00;101644.91;4881427;29;20044;-81
2023/09/09 08:47:45;;;;;;;16.20;13.35;;;;;;;27.29;100.00;101652.38;4890600;29;20431;-81
2023/09/09 08:50:15;;;;;;;15.77;14.27;;;;;;;27.37;100.00;101650.16;4900735;29;20907;-82
2023/09/09 08:52:44;;;;;;;18.52;13.63;;;;;;;27.45;100.00;101649.72;4901632;29;20547;-79
2023/09/09 08:55:12;;;;;;;16.63;13.98;;;;;;;27.47;100.00;101653.22;4905593;29;20491;-80
2023/09/09 08:57:39;;;;;;;15.73;14.15;;;;;;;27.47;100.00;101649.59;4905203;29;20451;-81
2023/09/09 09:00:08;;;;;;;17.27;13.57;;;;;;;27.42;100.00;101644.47;4851216;29;20748;-81
2023/09/09 09:02:36;;;;;;;15.63;14.10;;;;;;;27.41;100.00;101653.53;4894976;29;20087;-80
2023/09/09 09:05:04;;;;;;;16.90;15.23;;;;;;;27.42;100.00;101655.28;4904522;29;20395;-80
2023/09/09 09:07:34;;;;;;;17.23;15.05;;;;;;;27.30;100.00;101648.72;4917726;29;20061;-81
2023/09/09 09:10:02;;;;;;;20.27;15.25;;;;;;;27.24;100.00;101662.56;4892054;29;20114;-80
2023/09/09 09:12:35;;;;;;;14.57;12.95;;;;;;;27.18;100.00;101661.06;4921156;29;20424;-84
2023/09/09 09:15:03;;;;;;;22.25;16.08;;;;;;;27.08;100.00;101657.09;4912844;29;20056;-82
2023/09/09 09:17:32;;;;;;;19.80;16.92;;;;;;;27.00;100.00;101657.50;4864139;29;20055;-81
2023/09/09 09:20:00;;;;;;;17.83;14.90;;;;;;;26.94;100.00;101655.13;4903679;29;20048;-80
2023/09/09 09:22:30;;;;;;;16.75;14.95;;;;;;;26.95;100.00;101651.44;4900649;29;20056;-80
2023/09/09 09:24:57;;;;;;;;;;;;;;;26.91;100.00;101660.69;4866078;29;20056;-80
2023/09/09 09:27:30;;;;;;;17.83;12.85;;;;;;;26.94;100.00;101662.38;4896708;29;19931;-80
2023/09/09 09:29:57;;;;;;;17.55;14.00;;;;;;;26.98;100.00;101661.25;4910370;29;20090;-81
2023/09/09 09:32:40;;;;;;;16.52;14.52;;;;;;;26.99;100.00;101662.97;4823815;29;20074;-80
2023/09/09 09:35:26;;;;;;;17.08;15.07;;;;;;;26.89;100.00;101661.72;4901553;29;20055;-79
2023/09/09 09:38:02;;;;;;;17.55;15.05;;;;;;;26.80;100.00;101663.06;4901054;29;20419;-79
2023/09/09 09:40:30;;;;;;;16.05;13.30;;;;;;;26.72;100.00;101663.47;4896686;29;20052;-79
2023/09/09 09:42:58;;;;;;;24.83;15.00;;;;;;;26.76;100.00;101665.06;4874003;29;20846;-80
2023/09/09 09:45:27;;;;;;;20.35;15.57;;;;;;;26.78;100.00;101660.44;4895284;29;20052;-80
2023/09/09 09:47:57;;;;;;;21.73;14.87;;;;;;;26.78;100.00;101671.25;4855413;29;20060;-79
2023/09/09 09:50:30;;;;;;;18.98;14.70;;;;;;;26.76;100.00;101656.09;4860277;29;20063;-80
2023/09/09 09:53:02;;;;;;;22.83;15.40;;;;;;;26.78;100.00;101663.16;4898992;29;20052;-80
2023/09/09 09:55:33;;;;;;;46.30;17.40;;;;;;;26.81;100.00;101656.72;4897339;29;20075;-81
2023/09/09 09:58:05;;;;;;;;;;;;;;;26.86;100.00;101653.78;4905154;29;20051;-79
2023/09/09 10:00:33;;;;;;;17.00;14.63;;;;;;;26.90;100.00;101658.97;4898264;29;19933;-79
2023/09/09 10:03:02;;;;;;;18.83;15.38;;;;;;;26.93;100.00;101655.19;4871195;29;20051;-79
2023/09/09 10:05:33;;;;;;;17.05;14.75;;;;;;;26.96;100.00;101655.06;4909527;29;20418;-78
2023/09/09 10:08:39;;;;;;;18.23;16.40;;;;;;;27.00;100.00;101653.94;4900310;29;20056;-79
2023/09/09 10:11:10;;;;;;;17.27;14.15;;;;;;;27.06;100.00;101641.91;4892432;29;20530;-78
2023/09/09 10:14:02;;;;;;;20.10;17.23;;;;;;;27.14;100.00;101640.50;4907607;29;20424;-79
2023/09/09 10:16:30;;;;;;;20.13;18.02;;;;;;;27.18;100.00;101641.22;4911525;29;20061;-79
2023/09/09 10:19:02;;;;;;;20.17;17.67;;;;;;;27.23;100.00;101645.44;4866159;29;20048;-80
2023/09/09 10:21:32;;;;;;;16.92;14.63;;;;;;;27.29;100.00;101643.41;4882204;29;20067;-80
2023/09/09 10:24:12;;;;;;;16.48;14.80;;;;;;;27.36;100.00;101634.00;4888331;29;20079;-80
2023/09/09 10:26:40;;;;;;;16.27;14.75;;;;;;;27.41;100.00;101638.19;4900963;29;20055;-80
2023/09/09 10:29:08;;;;;;;16.85;13.85;;;;;;;27.47;100.00;101636.97;4897080;29;20051;-80
2023/09/09 10:31:36;;;;;;;15.57;13.80;;;;;;;27.55;100.00;101637.41;4872147;29;20424;-80
2023/09/09 10:34:05;;;;;;;19.70;17.65;;;;;;;27.61;100.00;101645.19;4871898;29;20060;-80
2023/09/09 10:36:36;;;;;;;22.08;16.00;;;;;;;27.65;100.00;101642.31;4891325;29;24367;-80
2023/09/09 10:39:24;;;;;;;16.60;15.02;;;;;;;27.63;100.00;101641.53;4905337;29;20067;-79
2023/09/09 10:41:55;;;;;;;16.90;15.10;;;;;;;27.60;100.00;101638.03;4878987;29;20056;-79
2023/09/09 10:44:23;;;;;;;18.02;15.77;;;;;;;27.58;100.00;101634.53;4906006;29;20136;-80
2023/09/09 10:46:55;;;;;;;16.52;14.13;;;;;;;27.60;100.00;101638.03;4906171;29;20420;-80
2023/09/09 10:49:29;;;;;;;19.02;13.13;;;;;;;27.63;100.00;101636.97;4876733;29;20059;-81
2023/09/09 10:51:57;;;;;;;17.42;13.70;;;;;;;27.65;100.00;101640.47;4887507;29;20051;-79
2023/09/09 10:54:26;;;;;;;14.45;12.98;;;;;;;27.66;100.00;101639.53;4893819;29;20062;-80
2023/09/09 10:56:59;;;;;;;16.02;12.23;;;;;;;27.70;100.00;101648.34;4885064;29;20055;-80
2023/09/09 10:59:32;;;;;;;12.77;10.88;;;;;;;27.74;100.00;101652.63;4889189;29;20575;-80
2023/09/09 11:02:18;;;;;;;14.13;11.02;;;;;;;27.79;100.00;101645.13;4902362;29;20048;-81
2023/09/09 11:04:57;;;;;;;11.35;10.25;;;;;;;27.81;100.00;101651.31;4890483;29;20044;-80
2023/09/09 11:07:38;;;;;;;12.68;10.00;;;;;;;27.87;100.00;101650.97;4886176;29;24666;-80
2023/09/09 11:10:07;;;;;;;10.52;9.40;;;;;;;27.95;100.00;101653.28;4921597;29;20591;-80
2023/09/09 11:12:34;;;;;;;10.90;9.65;;;;;;;28.05;100.00;101648.19;4893403;29;20044;-79
2023/09/09 11:15:09;;;;;;;12.32;9.27;;;;;;;28.08;100.00;101653.44;4892147;29;20059;-80